»·PEaware :: AAL1821 KLAS-KLAX

AAL1821 :: KLAS-KLAX

FLIGHT INFORMATION

Flight Status: Arrived
Operator:
American Airlines
More flights by this operator :: More flights under this callsign
Pilot: Taylor M. (19061)
Aircraft: AIRBUS A319
(A319)
More flights by this aircraft type
Origin: KLAS McCarran Intl
United States
Destination: KLAX Los Angeles Intl
United States
More flights between these airports :: More routes between these airports
Route: BOACH8 RIKII SHTNR ANJLL4
File this flight plan on PilotEdge
Remarks: RMK / SIMBRIEF
Altitude:
(Current/Filed)
32,000ft
Speed:
(Current/Filed)
458kts
Departed: 13-Oct-20 01:22 PM
Arrived: 13-Oct-20 02:04 PM
Distance/Time
Traveled:
205nm/0:42
Distance/Time
To Go:
Arrived

Flight Plot

Page will automatically refresh every two minutes.

Flight plan parsing failed; only flown route is shown


Map Options




Map Legend


Flown Route
Filed Route
Departure Airport
Arrival Airport
Navaid (VOR, NDB)
Fix

Horizontal Profiles

Position Reports

Time Latitude Longitude Heading Altitude Ground
Speed
13-Oct-20 12:58 36.080061 -115.134882 296 2062ft 0kts
13-Oct-20 12:59 36.080062 -115.134882 296 2062ft 0kts
13-Oct-20 13:00 36.080062 -115.134882 296 2062ft 0kts
13-Oct-20 13:01 36.080062 -115.134882 296 2062ft 0kts
13-Oct-20 13:02 36.080062 -115.134882 296 2062ft 0kts
13-Oct-20 13:03 36.080062 -115.134882 296 2062ft 0kts
13-Oct-20 13:04 36.080062 -115.134882 296 2062ft 0kts
13-Oct-20 13:05 36.080062 -115.134882 296 2062ft 0kts
13-Oct-20 13:06 36.080062 -115.134882 296 2062ft 0kts
13-Oct-20 13:07 36.080062 -115.134882 296 2062ft 0kts
13-Oct-20 13:08 36.080062 -115.134882 296 2062ft 0kts
13-Oct-20 13:09 36.080062 -115.134882 296 2062ft 0kts
13-Oct-20 13:10 36.080062 -115.134882 296 2062ft 0kts
13-Oct-20 13:11 36.080062 -115.134882 296 2062ft 0kts
13-Oct-20 13:12 36.080062 -115.134882 296 2062ft 0kts
13-Oct-20 13:14 36.079867 -115.134122 250 2059ft 0kts
13-Oct-20 13:15 36.079867 -115.134122 250 2059ft 0kts
13-Oct-20 13:16 36.079867 -115.134122 250 2059ft 0kts
13-Oct-20 13:17 36.079591 -115.134535 221 2062ft 5kts
13-Oct-20 13:18 36.078268 -115.133700 89 2061ft 15kts
13-Oct-20 13:19 36.078281 -115.126402 90 2043ft 22kts
13-Oct-20 13:20 36.077531 -115.121502 141 2038ft 0kts
13-Oct-20 13:21 36.077378 -115.121377 152 2038ft 8kts
13-Oct-20 13:22 36.076482 -115.141497 270 2451ft 159kts
13-Oct-20 13:23 36.076478 -115.200468 270 5357ft 196kts
13-Oct-20 13:24 36.048691 -115.266824 201 7292ft 290kts
13-Oct-20 13:25 35.971123 -115.300071 195 10993ft 307kts
13-Oct-20 13:26 35.877073 -115.312864 185 13531ft 357kts
13-Oct-20 13:27 35.774948 -115.306024 176 16688ft 375kts
13-Oct-20 13:28 35.668273 -115.295660 181 19128ft 387kts
13-Oct-20 13:29 35.560276 -115.299595 184 19177ft 387kts
13-Oct-20 13:29 35.472842 -115.325281 211 20805ft 392kts
13-Oct-20 13:31 35.360161 -115.407612 213 23417ft 412kts
13-Oct-20 13:31 35.276738 -115.468230 213 25151ft 422kts
13-Oct-20 13:33 35.156176 -115.555717 215 27485ft 430kts
13-Oct-20 13:33 35.085672 -115.638045 234 28913ft 431kts
13-Oct-20 13:34 35.009401 -115.758837 234 30018ft 451kts
13-Oct-20 13:35 34.932749 -115.878605 233 31974ft 444kts
13-Oct-20 13:36 34.855478 -115.998173 233 32164ft 445kts
13-Oct-20 13:37 34.778476 -116.116949 233 32169ft 445kts
13-Oct-20 13:38 34.701422 -116.235764 233 31927ft 443kts
13-Oct-20 13:39 34.624806 -116.353548 233 30736ft 435kts
13-Oct-20 13:40 34.550821 -116.466936 233 28913ft 419kts
13-Oct-20 13:41 34.479171 -116.576398 233 27317ft 404kts
13-Oct-20 13:42 34.409779 -116.682224 233 25577ft 396kts
13-Oct-20 13:43 34.341950 -116.785524 232 23739ft 388kts
13-Oct-20 13:44 34.275146 -116.886675 232 21805ft 380kts
13-Oct-20 13:45 34.212463 -116.988515 243 19859ft 371kts
13-Oct-20 13:46 34.178340 -117.104674 252 17912ft 363kts
13-Oct-20 13:47 34.147067 -117.219694 252 15975ft 354kts
13-Oct-20 13:48 34.116290 -117.331283 252 14170ft 340kts
13-Oct-20 13:49 34.086939 -117.444299 253 12848ft 346kts
13-Oct-20 13:50 34.064269 -117.552156 259 11286ft 317kts
13-Oct-20 13:51 34.047429 -117.652467 258 9882ft 294kts
13-Oct-20 13:52 34.031557 -117.746188 258 8600ft 273kts
13-Oct-20 13:53 34.016726 -117.833087 258 7449ft 259kts
13-Oct-20 13:54 34.002513 -117.916085 258 6344ft 243kts
13-Oct-20 13:55 33.989111 -117.993919 258 5311ft 230kts
13-Oct-20 13:56 33.976321 -118.067866 258 4365ft 220kts
13-Oct-20 13:57 33.963003 -118.137024 260 3783ft 194kts
13-Oct-20 13:58 33.956936 -118.194439 263 3183ft 167kts
13-Oct-20 13:59 33.951180 -118.249186 263 2311ft 153kts
13-Oct-20 14:00 33.946577 -118.293826 262 1590ft 128kts
13-Oct-20 14:01 33.942113 -118.336445 262 918ft 126kts
13-Oct-20 14:02 33.937811 -118.378287 262 240ft 124kts
13-Oct-20 14:03 33.936492 -118.399389 289 116ft 7kts
13-Oct-20 14:04 33.936512 -118.399459 289 116ft 0kts
13-Oct-20 14:05 33.936648 -118.400000 279 117ft 5kts
13-Oct-20 14:06 33.936425 -118.403032 273 120ft 9kts

Navigation Log

Ident Type
Flight plan parsing failed, navigation log unavailable